sensor_id;sensor_type;location;lat;lon;timestamp;P1;durP1;ratioP1;P2;durP2;ratioP2
75922;SDS011;64602;47.542;19.090;2023-04-24T05:45:58;12.50;;;9.63;;
75922;SDS011;64602;47.542;19.090;2023-04-24T05:51:00;14.53;;;8.93;;
75922;SDS011;64602;47.542;19.090;2023-04-24T05:56:02;14.38;;;10.20;;
75922;SDS011;64602;47.542;19.090;2023-04-24T06:01:05;12.60;;;8.48;;
75922;SDS011;64602;47.542;19.090;2023-04-24T06:06:07;13.03;;;8.13;;
75922;SDS011;64602;47.542;19.090;2023-04-24T06:11:10;10.18;;;7.95;;
75922;SDS011;64602;47.542;19.090;2023-04-24T06:16:12;10.82;;;7.72;;
75922;SDS011;64602;47.542;19.090;2023-04-24T06:21:17;9.73;;;7.30;;
75922;SDS011;64602;47.542;19.090;2023-04-24T06:26:19;13.87;;;8.53;;
75922;SDS011;64602;47.542;19.090;2023-04-24T06:31:22;12.63;;;7.97;;
75922;SDS011;64602;47.542;19.090;2023-04-24T06:36:24;17.85;;;9.07;;
75922;SDS011;64602;47.542;19.090;2023-04-24T06:41:26;14.63;;;8.50;;
75922;SDS011;64602;47.542;19.090;2023-04-24T06:46:29;13.00;;;8.85;;
75922;SDS011;64602;47.542;19.090;2023-04-24T06:51:32;14.15;;;9.18;;
75922;SDS011;64602;47.542;19.090;2023-04-24T06:56:34;19.20;;;11.37;;
75922;SDS011;64602;47.542;19.090;2023-04-24T07:01:37;13.07;;;9.07;;
75922;SDS011;64602;47.542;19.090;2023-04-24T07:06:39;13.62;;;9.10;;
75922;SDS011;64602;47.542;19.090;2023-04-24T07:11:42;14.40;;;9.33;;
75922;SDS011;64602;47.542;19.090;2023-04-24T07:16:44;12.77;;;7.90;;
75922;SDS011;64602;47.542;19.090;2023-04-24T07:21:47;13.18;;;9.25;;
75922;SDS011;64602;47.542;19.090;2023-04-24T07:26:49;12.15;;;9.02;;
75922;SDS011;64602;47.542;19.090;2023-04-24T07:31:53;20.97;;;8.93;;
75922;SDS011;64602;47.542;19.090;2023-04-24T07:36:55;15.93;;;8.88;;
75922;SDS011;64602;47.542;19.090;2023-04-24T07:41:58;14.63;;;8.75;;
75922;SDS011;64602;47.542;19.090;2023-04-24T07:47:58;11.27;;;7.97;;
75922;SDS011;64602;47.542;19.090;2023-04-24T07:53:00;12.75;;;8.60;;
75922;SDS011;64602;47.542;19.090;2023-04-24T07:58:02;14.73;;;8.05;;
75922;SDS011;64602;47.542;19.090;2023-04-24T08:03:04;13.80;;;7.83;;
75922;SDS011;64602;47.542;19.090;2023-04-24T08:08:07;13.15;;;8.10;;
75922;SDS011;64602;47.542;19.090;2023-04-24T08:13:09;11.63;;;8.25;;
75922;SDS011;64602;47.542;19.090;2023-04-24T08:18:13;11.60;;;8.73;;
75922;SDS011;64602;47.542;19.090;2023-04-24T08:23:17;13.10;;;8.83;;
75922;SDS011;64602;47.542;19.090;2023-04-24T08:28:19;14.73;;;9.07;;
75922;SDS011;64602;47.542;19.090;2023-04-24T08:33:22;13.38;;;8.85;;
75922;SDS011;64602;47.542;19.090;2023-04-24T08:38:25;13.77;;;7.83;;
75922;SDS011;64602;47.542;19.090;2023-04-24T08:43:27;10.88;;;8.07;;
75922;SDS011;64602;47.542;19.090;2023-04-24T08:48:30;10.60;;;7.62;;
75922;SDS011;64602;47.542;19.090;2023-04-24T08:53:33;11.53;;;7.33;;
75922;SDS011;64602;47.542;19.090;2023-04-24T08:58:37;10.68;;;8.05;;
75922;SDS011;64602;47.542;19.090;2023-04-24T09:03:40;11.93;;;7.90;;
75922;SDS011;64602;47.542;19.090;2023-04-24T09:08:43;10.77;;;7.07;;
75922;SDS011;64602;47.542;19.090;2023-04-24T09:13:47;12.40;;;7.63;;
75922;SDS011;64602;47.542;19.090;2023-04-24T09:18:50;12.30;;;7.07;;
75922;SDS011;64602;47.542;19.090;2023-04-24T09:23:59;8.80;;;6.95;;
75922;SDS011;64602;47.542;19.090;2023-04-24T09:29:03;8.13;;;6.23;;
75922;SDS011;64602;47.542;19.090;2023-04-24T09:34:06;9.57;;;6.35;;
75922;SDS011;64602;47.542;19.090;2023-04-24T09:39:10;8.80;;;5.90;;
75922;SDS011;64602;47.542;19.090;2023-04-24T09:44:14;7.63;;;4.73;;
75922;SDS011;64602;47.542;19.090;2023-04-24T09:54:27;7.85;;;6.10;;
75922;SDS011;64602;47.542;19.090;2023-04-24T09:59:29;6.20;;;4.53;;
75922;SDS011;64602;47.542;19.090;2023-04-24T10:04:32;8.47;;;4.83;;
75922;SDS011;64602;47.542;19.090;2023-04-24T10:09:34;8.80;;;4.75;;
75922;SDS011;64602;47.542;19.090;2023-04-24T10:14:36;8.75;;;4.30;;
75922;SDS011;64602;47.542;19.090;2023-04-24T10:19:39;6.73;;;4.13;;
75922;SDS011;64602;47.542;19.090;2023-04-24T10:24:43;5.70;;;3.87;;
75922;SDS011;64602;47.542;19.090;2023-04-24T10:29:46;6.70;;;3.95;;
75922;SDS011;64602;47.542;19.090;2023-04-24T10:34:50;8.57;;;4.67;;
75922;SDS011;64602;47.542;19.090;2023-04-24T10:39:52;7.07;;;4.15;;
75922;SDS011;64602;47.542;19.090;2023-04-24T10:44:56;9.20;;;5.10;;
75922;SDS011;64602;47.542;19.090;2023-04-24T10:50:00;7.37;;;4.53;;
75922;SDS011;64602;47.542;19.090;2023-04-24T10:55:02;9.07;;;5.37;;
75922;SDS011;64602;47.542;19.090;2023-04-24T11:00:20;8.77;;;5.25;;
75922;SDS011;64602;47.542;19.090;2023-04-24T11:05:49;9.45;;;5.65;;
75922;SDS011;64602;47.542;19.090;2023-04-24T11:26:39;9.87;;;6.70;;
75922;SDS011;64602;47.542;19.090;2023-04-24T11:31:44;7.35;;;6.00;;
75922;SDS011;64602;47.542;19.090;2023-04-24T11:36:51;8.73;;;5.90;;
75922;SDS011;64602;47.542;19.090;2023-04-24T11:41:53;9.97;;;6.40;;
75922;SDS011;64602;47.542;19.090;2023-04-24T11:47:05;8.80;;;6.37;;
75922;SDS011;64602;47.542;19.090;2023-04-24T11:52:08;11.23;;;6.57;;
75922;SDS011;64602;47.542;19.090;2023-04-24T11:57:12;10.27;;;6.95;;
75922;SDS011;64602;47.542;19.090;2023-04-24T12:02:23;10.77;;;7.10;;
75922;SDS011;64602;47.542;19.090;2023-04-24T12:07:27;10.25;;;7.07;;
75922;SDS011;64602;47.542;19.090;2023-04-24T12:12:29;10.60;;;7.57;;
75922;SDS011;64602;47.542;19.090;2023-04-24T12:17:32;11.13;;;7.63;;
75922;SDS011;64602;47.542;19.090;2023-04-24T12:27:53;11.10;;;7.90;;
75922;SDS011;64602;47.542;19.090;2023-04-24T12:32:57;9.63;;;6.57;;
75922;SDS011;64602;47.542;19.090;2023-04-24T12:38:11;7.73;;;6.13;;
75922;SDS011;64602;47.542;19.090;2023-04-24T12:43:15;10.43;;;6.55;;
75922;SDS011;64602;47.542;19.090;2023-04-24T12:48:19;11.63;;;6.57;;
75922;SDS011;64602;47.542;19.090;2023-04-24T12:53:22;19.37;;;9.50;;
75922;SDS011;64602;47.542;19.090;2023-04-24T12:58:24;14.02;;;8.05;;
75922;SDS011;64602;47.542;19.090;2023-04-24T13:03:26;12.43;;;6.50;;
75922;SDS011;64602;47.542;19.090;2023-04-24T13:08:29;14.20;;;6.87;;
75922;SDS011;64602;47.542;19.090;2023-04-24T13:13:31;9.35;;;6.07;;
75922;SDS011;64602;47.542;19.090;2023-04-24T13:18:33;10.40;;;5.75;;
75922;SDS011;64602;47.542;19.090;2023-04-24T13:23:35;7.13;;;4.70;;
75922;SDS011;64602;47.542;19.090;2023-04-24T13:28:37;8.90;;;4.03;;
75922;SDS011;64602;47.542;19.090;2023-04-24T13:33:40;7.22;;;3.80;;
75922;SDS011;64602;47.542;19.090;2023-04-24T13:38:43;5.70;;;3.60;;
75922;SDS011;64602;47.542;19.090;2023-04-24T13:43:46;6.47;;;2.93;;
75922;SDS011;64602;47.542;19.090;2023-04-24T13:48:48;6.97;;;3.17;;
75922;SDS011;64602;47.542;19.090;2023-04-24T13:53:50;9.63;;;3.37;;
75922;SDS011;64602;47.542;19.090;2023-04-24T13:58:52;8.70;;;3.87;;
75922;SDS011;64602;47.542;19.090;2023-04-24T14:03:56;11.25;;;4.45;;
75922;SDS011;64602;47.542;19.090;2023-04-24T14:08:58;11.75;;;4.90;;
75922;SDS011;64602;47.542;19.090;2023-04-24T14:14:01;8.20;;;4.67;;
75922;SDS011;64602;47.542;19.090;2023-04-24T14:19:03;11.53;;;5.50;;
75922;SDS011;64602;47.542;19.090;2023-04-24T14:24:06;10.13;;;5.45;;
75922;SDS011;64602;47.542;19.090;2023-04-24T14:29:09;8.18;;;5.07;;
75922;SDS011;64602;47.542;19.090;2023-04-24T14:34:15;9.20;;;5.83;;
75922;SDS011;64602;47.542;19.090;2023-04-24T14:39:18;10.23;;;5.65;;
75922;SDS011;64602;47.542;19.090;2023-04-24T14:44:20;9.32;;;5.97;;
75922;SDS011;64602;47.542;19.090;2023-04-24T14:49:28;10.73;;;6.60;;
75922;SDS011;64602;47.542;19.090;2023-04-24T14:54:30;10.52;;;6.30;;
75922;SDS011;64602;47.542;19.090;2023-04-24T14:59:32;8.60;;;6.62;;
75922;SDS011;64602;47.542;19.090;2023-04-24T15:04:35;10.57;;;6.80;;
75922;SDS011;64602;47.542;19.090;2023-04-24T15:09:38;12.83;;;7.40;;
75922;SDS011;64602;47.542;19.090;2023-04-24T15:14:40;12.20;;;6.43;;
75922;SDS011;64602;47.542;19.090;2023-04-24T15:19:42;13.50;;;6.60;;
75922;SDS011;64602;47.542;19.090;2023-04-24T15:24:44;11.70;;;5.87;;
75922;SDS011;64602;47.542;19.090;2023-04-24T15:29:46;8.23;;;5.93;;
75922;SDS011;64602;47.542;19.090;2023-04-24T15:34:48;8.57;;;5.90;;
75922;SDS011;64602;47.542;19.090;2023-04-24T15:40:05;6.53;;;4.87;;
75922;SDS011;64602;47.542;19.090;2023-04-24T15:45:09;7.97;;;4.53;;
75922;SDS011;64602;47.542;19.090;2023-04-24T15:50:12;6.93;;;4.30;;
75922;SDS011;64602;47.542;19.090;2023-04-24T15:55:15;7.13;;;4.00;;
75922;SDS011;64602;47.542;19.090;2023-04-24T16:00:17;7.50;;;4.40;;
75922;SDS011;64602;47.542;19.090;2023-04-24T16:05:20;6.85;;;4.57;;
75922;SDS011;64602;47.542;19.090;2023-04-24T16:10:23;6.07;;;3.83;;
75922;SDS011;64602;47.542;19.090;2023-04-24T16:15:26;6.00;;;3.80;;
75922;SDS011;64602;47.542;19.090;2023-04-24T16:20:28;7.00;;;3.95;;
75922;SDS011;64602;47.542;19.090;2023-04-24T16:25:30;7.28;;;4.28;;
75922;SDS011;64602;47.542;19.090;2023-04-24T16:30:32;6.27;;;4.37;;
75922;SDS011;64602;47.542;19.090;2023-04-24T16:35:35;9.10;;;5.65;;
75922;SDS011;64602;47.542;19.090;2023-04-24T16:40:37;5.95;;;4.12;;
75922;SDS011;64602;47.542;19.090;2023-04-24T16:45:40;6.10;;;4.40;;
75922;SDS011;64602;47.542;19.090;2023-04-24T16:50:42;5.50;;;4.20;;
75922;SDS011;64602;47.542;19.090;2023-04-24T16:55:44;5.85;;;4.05;;
75922;SDS011;64602;47.542;19.090;2023-04-24T17:00:47;5.68;;;3.97;;
75922;SDS011;64602;47.542;19.090;2023-04-24T17:05:49;4.63;;;3.47;;
75922;SDS011;64602;47.542;19.090;2023-04-24T17:10:51;7.45;;;4.00;;
75922;SDS011;64602;47.542;19.090;2023-04-24T17:15:53;5.12;;;4.03;;
75922;SDS011;64602;47.542;19.090;2023-04-24T17:20:56;6.40;;;4.47;;
75922;SDS011;64602;47.542;19.090;2023-04-24T17:25:58;7.78;;;5.62;;
75922;SDS011;64602;47.542;19.090;2023-04-24T17:31:00;6.18;;;4.37;;
75922;SDS011;64602;47.542;19.090;2023-04-24T17:36:02;5.60;;;4.23;;
75922;SDS011;64602;47.542;19.090;2023-04-24T17:41:05;4.93;;;3.50;;
75922;SDS011;64602;47.542;19.090;2023-04-24T17:46:07;6.87;;;3.78;;
75922;SDS011;64602;47.542;19.090;2023-04-24T17:51:10;5.35;;;3.67;;
75922;SDS011;64602;47.542;19.090;2023-04-24T17:56:12;5.37;;;3.00;;
75922;SDS011;64602;47.542;19.090;2023-04-24T18:01:14;6.43;;;3.00;;
75922;SDS011;64602;47.542;19.090;2023-04-24T18:06:16;4.80;;;2.95;;
75922;SDS011;64602;47.542;19.090;2023-04-24T18:11:19;4.57;;;2.63;;
75922;SDS011;64602;47.542;19.090;2023-04-24T18:16:21;5.12;;;2.42;;
75922;SDS011;64602;47.542;19.090;2023-04-24T18:21:26;3.67;;;2.00;;
75922;SDS011;64602;47.542;19.090;2023-04-24T18:26:29;4.57;;;2.30;;
75922;SDS011;64602;47.542;19.090;2023-04-24T18:31:31;4.67;;;2.63;;
75922;SDS011;64602;47.542;19.090;2023-04-24T18:36:34;4.78;;;2.08;;
75922;SDS011;64602;47.542;19.090;2023-04-24T18:41:36;4.93;;;2.53;;
75922;SDS011;64602;47.542;19.090;2023-04-24T18:46:38;4.20;;;2.83;;
75922;SDS011;64602;47.542;19.090;2023-04-24T18:51:42;4.10;;;2.30;;
75922;SDS011;64602;47.542;19.090;2023-04-24T18:56:55;5.03;;;2.45;;
75922;SDS011;64602;47.542;19.090;2023-04-24T19:01:57;4.87;;;2.90;;
75922;SDS011;64602;47.542;19.090;2023-04-24T19:06:59;4.35;;;2.37;;
75922;SDS011;64602;47.542;19.090;2023-04-24T19:12:01;4.10;;;2.22;;
75922;SDS011;64602;47.542;19.090;2023-04-24T19:17:04;4.23;;;2.50;;
75922;SDS011;64602;47.542;19.090;2023-04-24T19:22:06;4.57;;;2.13;;
75922;SDS011;64602;47.542;19.090;2023-04-24T19:27:08;5.15;;;2.53;;
75922;SDS011;64602;47.542;19.090;2023-04-24T19:32:10;4.62;;;2.20;;
75922;SDS011;64602;47.542;19.090;2023-04-24T19:37:12;3.70;;;1.90;;
75922;SDS011;64602;47.542;19.090;2023-04-24T19:42:15;3.35;;;2.00;;
75922;SDS011;64602;47.542;19.090;2023-04-24T19:47:18;3.80;;;1.70;;
